Time;durP1;ratioP1;P1;durP2;ratioP2;P2;SDS_P1;SDS_P2;PMS_P1;PMS_P2;Temp;Humidity;BMP_temperature;BMP_pressure;BME280_temperature;BME280_humidity;BME280_pressure;Samples;Min_cycle;Max_cycle;Signal;HPM_P1;HPM_P2
2023/01/04 00:01:22;;;;;;;19.25;4.10;;;4.10;99.90;;;3.93;100.00;101376.25;4961038;28;20233;-80
2023/01/04 00:03:50;;;;;;;18.73;3.95;;;4.20;99.90;;;3.86;100.00;101376.72;4961146;28;20229;-78
2023/01/04 00:06:18;;;;;;;26.63;5.32;;;4.10;99.90;;;3.87;100.00;101373.28;4977351;28;20287;-78
2023/01/04 00:08:45;;;;;;;20.52;4.15;;;4.10;99.90;;;3.95;100.00;101371.09;4964303;28;20279;-80
2023/01/04 00:11:19;;;;;;;19.75;3.95;;;4.00;99.90;;;4.02;100.00;101366.25;4962555;28;20305;-86
2023/01/04 00:13:50;;;;;;;21.65;4.45;;;4.00;99.90;;;4.02;100.00;101367.97;4978369;28;20331;-78
2023/01/04 00:16:21;;;;;;;19.58;4.00;;;4.10;99.90;;;3.95;100.00;101374.59;4962125;28;20241;-78
2023/01/04 00:18:49;;;;;;;18.23;3.83;;;4.20;99.90;;;3.97;100.00;101380.81;4962769;28;20264;-81
2023/01/04 00:21:21;;;;;;;21.58;4.45;;;4.10;99.90;;;3.95;100.00;101374.59;4968435;28;20375;-78
2023/01/04 00:23:52;;;;;;;13.65;2.95;;;4.20;99.90;;;3.96;100.00;101373.78;4963308;28;20276;-77
2023/01/04 00:26:24;;;;;;;15.93;3.38;;;4.00;99.90;;;3.92;100.00;101371.84;4961436;28;20244;-80
2023/01/04 00:29:00;;;;;;;24.75;5.07;;;4.20;99.90;;;3.85;100.00;101373.22;4979755;28;20253;-82
2023/01/04 00:31:27;;;;;;;21.30;4.50;;;4.00;99.90;;;3.81;100.00;101366.03;4980835;28;20260;-78
2023/01/04 00:33:57;;;;;;;22.60;4.75;;;4.10;99.90;;;3.84;100.00;101368.78;4962046;28;20241;-78
2023/01/04 00:36:26;;;;;;;22.15;4.47;;;3.90;99.90;;;3.84;100.00;101363.56;4963696;28;20652;-78
2023/01/04 00:39:06;;;;;;;24.52;5.30;;;4.00;99.90;;;3.81;100.00;101359.91;4964134;28;20232;-77
2023/01/04 00:41:44;;;;;;;17.45;4.13;;;4.10;99.90;;;3.81;100.00;101358.19;4963746;28;20251;-81
2023/01/04 00:44:29;;;;;;;17.58;3.95;;;4.10;99.90;;;3.79;100.00;101353.69;4963801;28;20244;-77
2023/01/04 00:47:00;;;;;;;18.23;3.97;;;3.90;99.90;;;3.77;100.00;101344.88;4965963;28;20236;-81
2023/01/04 00:49:29;;;;;;;20.70;4.45;;;3.90;99.90;;;3.77;100.00;101347.47;4965736;28;20586;-77
2023/01/04 00:51:56;;;;;;;13.82;3.13;;;4.00;99.90;;;3.77;100.00;101344.88;4966844;28;20232;-77
2023/01/04 00:54:24;;;;;;;19.77;4.05;;;3.80;99.90;;;3.76;100.00;101349.19;4964857;28;20235;-77
2023/01/04 00:56:51;;;;;;;24.80;5.15;;;3.80;99.90;;;3.72;100.00;101344.63;4960284;28;20257;-78
2023/01/04 00:59:21;;;;;;;23.02;4.72;;;4.00;99.90;;;3.74;100.00;101345.59;4961063;28;20239;-77
2023/01/04 01:01:49;;;;;;;22.48;4.65;;;3.80;99.90;;;3.71;100.00;101344.56;4958832;28;20233;-81
2023/01/04 01:04:20;;;;;;;19.55;3.88;;;3.80;99.90;;;3.69;100.00;101349.69;4962896;28;20240;-77
2023/01/04 01:06:48;;;;;;;25.73;5.30;;;3.80;99.90;;;3.69;100.00;101343.56;4960693;28;20229;-78
2023/01/04 01:09:16;;;;;;;12.20;2.58;;;3.80;99.90;;;3.72;100.00;101354.19;4966130;28;20292;-79
2023/01/04 01:11:44;;;;;;;16.65;3.42;;;3.80;99.90;;;3.71;100.00;101353.28;4966776;28;20242;-78
2023/01/04 01:14:21;;;;;;;23.95;4.75;;;3.90;99.90;;;3.73;100.00;101361.22;4962872;28;20361;-77
2023/01/04 01:16:49;;;;;;;21.85;4.38;;;4.10;99.90;;;3.69;100.00;101367.13;4969239;28;20330;-79
2023/01/04 01:19:28;;;;;;;26.23;5.38;;;3.80;99.90;;;3.65;100.00;101360.84;4965467;28;20271;-77
2023/01/04 01:21:56;;;;;;;20.85;4.30;;;3.80;99.90;;;3.84;100.00;101375.75;4959968;28;20238;-78
2023/01/04 01:24:24;;;;;;;16.77;3.58;;;3.90;99.90;;;3.91;100.00;101385.75;4961245;28;20252;-78
2023/01/04 01:26:52;;;;;;;20.23;4.38;;;3.90;99.90;;;3.84;100.00;101378.38;4969671;28;20233;-81
2023/01/04 01:29:19;;;;;;;23.77;4.82;;;4.00;99.90;;;3.77;100.00;101373.63;4969339;28;20233;-79
2023/01/04 01:31:46;;;;;;;11.65;2.50;;;3.90;99.90;;;3.84;100.00;101386.22;4972176;28;20232;-77
2023/01/04 01:34:13;;;;;;;24.05;4.85;;;3.90;99.90;;;4.01;100.00;101392.34;4960973;28;20233;-83
2023/01/04 01:36:42;;;;;;;15.82;3.28;;;4.20;99.90;;;4.13;100.00;101401.69;4967441;28;20287;-77
2023/01/04 01:39:09;;;;;;;14.75;3.10;;;4.20;99.90;;;4.15;100.00;101407.03;4966084;28;20253;-76
2023/01/04 01:41:37;;;;;;;24.40;4.82;;;4.40;99.90;;;4.08;100.00;101408.44;4964152;28;20264;-78
2023/01/04 01:44:11;;;;;;;23.05;4.90;;;4.30;99.90;;;4.19;100.00;101411.59;4964767;28;20291;-77
2023/01/04 01:46:49;;;;;;;26.83;5.35;;;4.30;99.90;;;4.23;100.00;101412.63;4962431;28;20236;-83
2023/01/04 01:49:42;;;;;;;20.05;4.13;;;4.30;99.90;;;4.13;100.00;101408.66;4957902;28;20236;-81
2023/01/04 01:52:23;;;;;;;16.70;3.40;;;4.30;99.90;;;4.19;100.00;101408.97;4958571;28;20237;-77
2023/01/04 01:54:59;;;;;;;18.65;4.20;;;4.30;99.90;;;4.35;100.00;101413.25;4960130;28;20283;-78
2023/01/04 01:57:31;;;;;;;11.45;2.53;;;4.40;99.90;;;4.49;100.00;101412.19;4959368;28;20233;-76
2023/01/04 02:00:04;;;;;;;24.08;5.13;;;4.40;99.90;;;4.45;100.00;101405.03;4960320;28;20249;-82
2023/01/04 02:02:32;;;;;;;21.73;4.60;;;4.60;99.90;;;4.50;100.00;101416.63;4968159;28;20738;-76
2023/01/04 02:05:02;;;;;;;20.17;4.40;;;4.60;99.90;;;4.50;100.00;101414.00;4964420;28;20251;-76
2023/01/04 02:07:29;;;;;;;12.77;2.90;;;4.60;99.90;;;4.52;100.00;101414.06;4963965;28;20588;-79
2023/01/04 02:09:58;;;;;;;27.50;5.57;;;4.70;99.90;;;4.64;100.00;101412.06;4969708;28;20244;-82
2023/01/04 02:12:25;;;;;;;22.58;4.68;;;4.70;99.90;;;4.68;100.00;101411.38;4958267;28;20299;-77
2023/01/04 02:14:52;;;;;;;21.77;4.55;;;4.90;99.90;;;4.66;100.00;101408.69;4957385;28;20240;-77
2023/01/04 02:17:33;;;;;;;20.20;4.32;;;4.70;99.90;;;4.66;100.00;101411.31;4959867;28;20289;-77
2023/01/04 02:20:15;;;;;;;20.08;4.35;;;4.80;99.90;;;4.71;100.00;101411.53;4961474;28;20583;-79
2023/01/04 02:23:12;;;;;;;14.05;2.95;;;4.80;99.90;;;4.91;100.00;101421.22;4961301;28;20308;-77
2023/01/04 02:25:48;;;;;;;16.20;3.33;;;4.90;99.90;;;5.04;100.00;101431.47;4962069;28;20264;-79
2023/01/04 02:28:56;;;;;;;22.42;4.55;;;5.10;99.90;;;5.15;100.00;101456.47;4959599;28;20601;-81
2023/01/04 02:31:40;;;;;;;20.80;4.40;;;5.20;99.90;;;5.30;100.00;101469.44;4957636;28;20233;-78
2023/01/04 02:34:33;;;;;;;20.88;4.22;;;5.30;99.90;;;5.56;100.00;101496.88;4975145;28;20303;-77
2023/01/04 02:37:18;;;;;;;25.85;5.32;;;5.40;99.90;;;5.85;100.00;101523.53;4958868;28;20233;-80
2023/01/04 02:40:07;;;;;;;17.08;3.38;;;5.80;99.90;;;5.89;100.00;101534.28;4961386;28;20292;-84
2023/01/04 02:46:25;;;;;;;19.73;4.13;;;6.00;99.90;;;6.03;100.00;101553.28;4958733;28;20287;-76
2023/01/04 02:51:38;;;;;;;17.80;3.65;;;5.90;99.90;;;5.82;100.00;101523.41;4956225;28;20303;-77
2023/01/04 02:54:18;;;;;;;18.40;3.75;;;5.90;99.90;;;5.67;100.00;101514.00;4960263;28;20441;-79
2023/01/04 02:57:04;;;;;;;23.67;4.72;;;5.80;99.90;;;5.65;100.00;101506.88;4959186;28;20228;-80
2023/01/04 03:00:07;;;;;;;37.00;7.47;;;5.70;99.90;;;5.67;100.00;101507.84;4980397;28;20232;-77
2023/01/04 03:06:16;;;;;;;22.40;4.50;;;5.70;99.90;;;5.65;100.00;101507.78;4964011;28;20240;-83
2023/01/04 03:09:17;;;;;;;15.20;3.10;;;5.70;99.90;;;5.65;100.00;101485.91;4962648;28;20221;-76
2023/01/04 03:14:47;;;;;;;21.42;4.50;;;5.70;99.90;;;5.64;100.00;101471.88;4964289;28;20229;-76
2023/01/04 03:17:18;;;;;;;17.88;3.70;;;5.70;99.90;;;5.62;100.00;101473.53;4977645;28;20255;-78
2023/01/04 03:19:50;;;;;;;16.75;3.50;;;5.70;99.90;;;5.69;100.00;101464.22;4959239;28;20237;-79
2023/01/04 03:37:12;;;;;;;14.63;3.28;;;5.70;99.90;;;5.57;100.00;101447.91;4960642;28;20311;-82
2023/01/04 03:49:29;;;;;;;33.15;6.57;;;5.50;99.90;;;5.31;100.00;101438.84;4955267;28;20329;-82
2023/01/04 03:52:02;;;;;;;22.40;4.78;;;5.40;99.90;;;5.21;100.00;101434.00;4957199;28;20221;-82
2023/01/04 03:54:35;;;;;;;25.88;5.35;;;5.30;99.90;;;5.09;100.00;101426.44;4958520;28;20267;-76
2023/01/04 03:57:03;;;;;;;36.33;7.25;;;5.20;99.90;;;4.95;100.00;101428.41;4956027;28;20237;-77
2023/01/04 03:59:31;;;;;;;21.73;4.40;;;5.00;99.90;;;4.82;100.00;101421.69;4956137;28;20284;-77
2023/01/04 04:01:58;;;;;;;28.98;5.88;;;4.90;99.90;;;4.66;100.00;101419.16;4956932;28;20257;-79
2023/01/04 04:09:57;;;;;;;19.48;4.05;;;4.70;99.90;;;4.41;100.00;101418.78;4960556;28;20233;-79
2023/01/04 04:12:24;;;;;;;19.95;4.20;;;4.70;99.90;;;4.32;100.00;101416.63;4964041;28;20225;-76
2023/01/04 04:14:51;;;;;;;21.90;4.57;;;4.50;99.90;;;4.24;100.00;101428.44;4963927;28;20307;-76
2023/01/04 04:17:18;;;;;;;13.00;2.80;;;4.40;99.90;;;4.20;100.00;101434.31;4961020;28;20340;-78
2023/01/04 04:19:45;;;;;;;14.80;3.03;;;4.30;99.90;;;4.15;100.00;101435.81;4962087;28;20241;-76
2023/01/04 04:22:12;;;;;;;15.18;3.03;;;4.30;99.90;;;4.13;100.00;101448.81;4959724;28;20335;-76
2023/01/04 04:24:39;;;;;;;14.68;3.00;;;4.20;99.90;;;4.12;100.00;101433.94;4964926;28;20311;-78
2023/01/04 04:27:06;;;;;;;14.55;2.97;;;4.20;99.90;;;4.11;100.00;101437.38;4964535;28;20236;-76
2023/01/04 04:29:33;;;;;;;28.88;5.80;;;4.20;99.90;;;4.11;100.00;101433.88;4962770;28;20767;-80
2023/01/04 04:32:00;;;;;;;16.63;3.65;;;4.20;99.90;;;4.09;100.00;101427.66;4963476;28;20831;-76
2023/01/04 04:34:27;;;;;;;22.10;4.68;;;4.20;99.90;;;4.05;100.00;101430.94;4957172;28;20248;-78
2023/01/04 04:36:54;;;;;;;16.98;3.72;;;4.10;99.90;;;4.05;100.00;101428.31;4957343;28;20245;-76
2023/01/04 04:39:21;;;;;;;24.55;5.22;;;4.10;99.90;;;4.04;100.00;101427.41;4964130;28;20283;-77
2023/01/04 04:41:48;;;;;;;15.95;3.33;;;4.10;99.90;;;4.02;100.00;101420.31;4964109;28;20245;-76
2023/01/04 04:44:18;;;;;;;21.83;4.32;;;4.10;99.90;;;4.05;100.00;101413.50;4962672;28;20280;-80
2023/01/04 04:46:47;;;;;;;21.20;4.68;;;4.60;99.90;;;4.09;100.00;101415.47;4964764;28;20244;-85
2023/01/04 04:49:15;;;;;;;20.88;4.20;;;4.30;99.90;;;4.12;100.00;101420.84;4964741;28;20621;-79
2023/01/04 04:51:43;;;;;;;17.23;3.53;;;4.20;99.90;;;4.18;100.00;101415.91;4961758;28;20776;-75
2023/01/04 04:54:17;;;;;;;16.10;3.28;;;4.50;99.90;;;4.26;100.00;101418.03;4963331;28;20236;-79
2023/01/04 04:56:45;;;;;;;15.15;3.05;;;4.50;99.90;;;4.29;100.00;101416.47;4963399;28;20283;-76
2023/01/04 04:59:12;;;;;;;16.60;3.35;;;4.50;99.90;;;4.33;100.00;101405.31;4961346;28;20225;-78
2023/01/04 05:01:40;;;;;;;19.70;3.95;;;4.40;99.90;;;4.39;100.00;101407.34;4960421;28;20225;-77
2023/01/04 05:04:08;;;;;;;19.38;3.95;;;4.50;99.90;;;4.47;100.00;101406.00;4956453;28;20240;-76
2023/01/04 05:06:41;;;;;;;14.00;3.30;;;4.50;99.90;;;4.49;100.00;101400.00;4978670;28;20262;-76
2023/01/04 05:09:13;;;;;;;16.38;3.33;;;4.50;99.90;;;4.56;100.00;101395.06;4961396;28;20319;-77
2023/01/04 05:14:28;;;;;;;23.33;4.85;;;4.70;99.90;;;4.69;100.00;101403.59;4960329;28;20324;-76
2023/01/04 05:16:55;;;;;;;16.98;3.70;;;4.70;99.90;;;4.72;100.00;101408.06;4963256;28;20224;-79
2023/01/04 05:19:22;;;;;;;22.70;4.72;;;4.80;99.90;;;4.75;100.00;101403.88;4961125;28;20235;-79
2023/01/04 05:21:49;;;;;;;14.30;3.28;;;4.80;99.90;;;4.78;100.00;101396.16;4962316;28;20296;-77
2023/01/04 05:24:16;;;;;;;18.90;3.83;;;5.00;99.90;;;4.77;100.00;101389.13;4960792;28;20256;-79
2023/01/04 05:26:43;;;;;;;15.65;3.17;;;4.90;99.90;;;4.80;100.00;101381.41;4960380;28;20357;-77
2023/01/04 05:30:49;;;;;;;19.30;3.85;;;4.90;99.90;;;4.77;100.00;101378.66;4965674;28;20720;-76
2023/01/04 05:31:57;;;;;;;31.92;6.45;;;4.90;99.90;;;4.79;100.00;101379.63;4958097;28;20291;-78
2023/01/04 05:34:25;;;;;;;23.83;4.85;;;5.00;99.90;;;4.80;100.00;101372.66;4961363;28;20220;-79
2023/01/04 05:36:52;;;;;;;14.55;3.28;;;4.90;99.90;;;4.81;100.00;101367.47;4959331;28;20622;-78
2023/01/04 05:39:19;;;;;;;15.93;3.85;;;4.90;99.90;;;4.82;100.00;101364.03;4962569;28;20237;-78
2023/01/04 05:44:32;;;;;;;14.32;3.22;;;4.90;99.90;;;4.88;100.00;101355.56;4958543;28;20256;-76
2023/01/04 05:46:59;;;;;;;16.98;3.80;;;4.90;99.90;;;4.89;100.00;101341.63;4956314;28;20233;-77
2023/01/04 05:49:26;;;;;;;28.63;5.75;;;5.10;99.90;;;4.95;100.00;101338.38;4957515;28;20222;-77
2023/01/04 05:51:53;;;;;;;20.40;4.38;;;5.00;99.90;;;4.97;100.00;101335.00;4963639;28;20319;-77
2023/01/04 05:54:20;;;;;;;24.88;5.13;;;5.00;99.90;;;4.99;100.00;101335.97;4963228;28;20233;-77
2023/01/04 05:56:47;;;;;;;19.05;3.97;;;5.10;99.90;;;5.00;100.00;101329.00;4951523;28;20237;-77
2023/01/04 05:59:15;;;;;;;25.67;5.13;;;5.10;99.90;;;5.03;100.00;101327.44;4955256;28;20316;-77
2023/01/04 06:01:42;;;;;;;10.13;2.22;;;5.10;99.90;;;5.02;100.00;101320.38;4960178;28;20230;-77
2023/01/04 06:04:09;;;;;;;16.23;3.38;;;5.10;99.90;;;5.04;100.00;101320.47;4960895;28;20236;-79
2023/01/04 06:06:37;;;;;;;19.63;4.10;;;5.10;99.90;;;5.06;100.00;101319.69;4974893;28;20239;-78
2023/01/04 06:09:04;;;;;;;22.75;4.93;;;5.20;99.90;;;5.05;100.00;101311.78;4960768;28;20253;-80
2023/01/04 06:11:31;;;;;;;23.08;4.72;;;5.10;99.90;;;5.07;100.00;101315.34;4964772;28;20240;-75
2023/01/04 06:13:58;;;;;;;17.92;3.83;;;5.10;99.90;;;5.06;100.00;101311.84;4964000;28;20233;-77
2023/01/04 06:16:25;;;;;;;14.60;3.28;;;5.10;99.90;;;5.08;100.00;101306.66;4957104;28;20291;-76
2023/01/04 06:18:52;;;;;;;20.73;4.38;;;5.20;99.90;;;5.23;100.00;101311.72;4959302;28;20232;-76
2023/01/04 06:21:19;;;;;;;25.40;5.18;;;5.30;99.90;;;5.59;100.00;101331.69;4957035;28;20303;-78
2023/01/04 06:23:46;;;;;;;18.20;3.80;;;5.60;99.90;;;6.01;100.00;101344.88;4957967;28;20318;-79
2023/01/04 06:26:13;;;;;;;12.20;2.47;;;6.00;99.90;;;6.15;100.00;101350.72;4959460;28;20233;-77
2023/01/04 06:28:41;;;;;;;28.52;5.72;;;6.10;99.90;;;6.34;100.00;101374.28;4956030;28;20733;-77
2023/01/04 06:31:09;;;;;;;18.13;3.58;;;6.30;99.90;;;6.33;100.00;101383.00;4957139;28;20311;-79
2023/01/04 06:33:37;;;;;;;15.73;3.20;;;6.40;99.90;;;6.54;100.00;101399.66;4965498;28;20506;-76
2023/01/04 06:36:06;;;;;;;29.63;6.13;;;6.50;99.90;;;6.52;100.00;101406.59;4965664;28;20311;-79
2023/01/04 06:38:45;;;;;;;9.00;1.95;;;6.60;99.90;;;6.55;100.00;101401.44;4966036;28;20220;-77
2023/01/04 06:41:12;;;;;;;14.00;3.05;;;6.60;99.90;;;6.67;100.00;101398.41;4966220;28;20257;-84
2023/01/04 06:43:39;;;;;;;8.38;1.88;;;6.70;99.90;;;6.71;100.00;101392.44;4980229;28;20224;-76
2023/01/04 06:46:06;;;;;;;8.52;1.80;;;6.70;99.90;;;6.74;100.00;101395.19;4977541;28;20261;-78
2023/01/04 06:48:33;;;;;;;11.73;3.50;;;6.80;99.90;;;6.78;100.00;101397.13;4974359;28;20698;-76
2023/01/04 06:51:01;;;;;;;12.50;2.78;;;6.80;99.90;;;6.70;100.00;101391.56;4962308;28;20241;-78
2023/01/04 06:53:28;;;;;;;14.45;3.13;;;6.80;99.90;;;6.73;100.00;101389.03;4968324;28;20295;-76
2023/01/04 06:55:55;;;;;;;20.85;4.43;;;6.80;99.90;;;6.82;100.00;101384.97;4964197;28;20280;-80
2023/01/04 06:58:22;;;;;;;17.17;3.60;;;6.80;99.90;;;6.81;100.00;101386.72;4963850;28;20295;-77
2023/01/04 07:00:53;;;;;;;19.20;3.92;;;6.80;99.90;;;6.80;100.00;101386.66;4962834;28;20229;-78
2023/01/04 07:03:22;;;;;;;8.40;2.05;;;6.80;99.90;;;6.79;100.00;101375.25;4966762;28;20240;-77
2023/01/04 07:05:49;;;;;;;11.90;2.55;;;6.90;99.90;;;6.76;100.00;101364.63;4968032;28;20225;-76
2023/01/04 07:08:17;;;;;;;2.38;0.68;;;6.80;99.90;;;6.70;100.00;101364.38;4970694;28;20240;-78
2023/01/04 07:10:44;;;;;;;5.45;1.20;;;6.80;99.90;;;6.76;100.00;101353.19;4972906;28;20284;-79
2023/01/04 07:13:11;;;;;;;12.80;2.65;;;6.80;99.90;;;6.77;100.00;101361.16;4970812;28;20229;-78
2023/01/04 07:15:38;;;;;;;10.50;2.25;;;6.80;99.90;;;6.77;100.00;101366.41;4968281;28;20228;-77
2023/01/04 07:18:09;;;;;;;13.60;2.83;;;6.80;99.90;;;6.80;100.00;101360.38;4970117;28;20233;-78
2023/01/04 07:20:37;;;;;;;4.72;1.13;;;6.80;99.90;;;6.90;100.00;101373.94;4973636;28;20302;-76
2023/01/04 07:23:06;;;;;;;14.77;3.17;;;6.90;99.90;;;6.82;100.00;101377.09;4970929;28;20229;-77
2023/01/04 07:25:33;;;;;;;17.85;3.85;;;6.90;99.90;;;6.81;100.00;101391.09;4968466;28;20242;-76
2023/01/04 07:28:01;;;;;;;18.58;3.88;;;6.80;99.90;;;6.84;100.00;101393.84;4960373;28;20237;-76
2023/01/04 07:30:28;;;;;;;10.25;2.40;;;6.90;99.90;;;6.81;100.00;101391.09;4961691;28;20240;-76
2023/01/04 07:32:55;;;;;;;17.88;3.83;;;6.80;99.90;;;6.82;100.00;101393.78;4965149;28;20232;-78
2023/01/04 07:35:23;;;;;;;18.55;3.80;;;6.90;99.90;;;6.82;100.00;101375.38;4966196;28;20225;-76
2023/01/04 07:37:50;;;;;;;9.52;2.15;;;6.90;99.90;;;6.84;100.00;101368.44;4959352;28;20239;-77
2023/01/04 07:40:25;;;;;;;13.07;2.88;;;6.90;99.90;;;6.83;100.00;101360.50;4975107;28;20233;-77
2023/01/04 07:42:56;;;;;;;20.02;4.22;;;6.90;99.90;;;6.82;100.00;101353.44;4971650;28;20232;-78
2023/01/04 07:45:25;;;;;;;10.35;2.35;;;6.90;99.90;;;6.79;100.00;101348.06;4972235;28;20628;-76
2023/01/04 07:47:52;;;;;;;8.45;1.92;;;6.80;99.90;;;6.78;100.00;101343.63;4964469;28;20232;-76
2023/01/04 07:50:19;;;;;;;11.55;2.45;;;6.80;99.90;;;6.74;100.00;101348.78;4962337;28;20261;-76
2023/01/04 07:52:46;;;;;;;12.32;2.63;;;6.80;99.90;;;6.70;100.00;101336.34;4962780;28;20261;-79
2023/01/04 07:55:13;;;;;;;12.38;2.55;;;6.80;99.90;;;6.69;100.00;101337.19;4986742;28;20236;-77
2023/01/04 07:57:40;;;;;;;11.68;2.50;;;6.70;99.90;;;6.69;100.00;101331.94;4963902;28;20237;-77
2023/01/04 08:00:08;;;;;;;16.33;3.40;;;6.70;99.90;;;6.70;100.00;101314.44;4967645;28;20267;-77
2023/01/04 08:02:35;;;;;;;7.60;1.65;;;6.70;99.90;;;6.78;100.00;101326.13;4967438;28;20237;-77
2023/01/04 08:05:03;;;;;;;8.05;1.92;;;6.80;99.90;;;6.78;100.00;101333.13;4962142;28;20241;-77
2023/01/04 08:07:30;;;;;;;10.48;2.40;;;6.80;99.90;;;6.78;100.00;101331.38;4972188;28;20237;-77
2023/01/04 08:09:57;;;;;;;16.45;3.47;;;6.80;99.90;;;6.82;100.00;101341.19;4977543;28;20233;-76
2023/01/04 08:12:24;;;;;;;18.42;3.85;;;6.90;99.90;;;6.89;100.00;101329.16;4966980;28;20299;-77
2023/01/04 08:14:51;;;;;;;9.65;2.38;;;6.90;99.90;;;6.93;100.00;101323.19;4978749;28;20260;-77
2023/01/04 08:17:18;;;;;;;17.27;3.55;;;7.00;99.90;;;7.00;100.00;101330.47;4976510;28;20245;-77
2023/01/04 08:19:45;;;;;;;20.02;4.00;;;7.00;99.90;;;7.03;100.00;101338.47;4956811;28;20339;-76
2023/01/04 08:22:13;;;;;;;7.28;1.52;;;7.00;99.90;;;7.03;100.00;101335.84;4960746;28;20225;-81
2023/01/04 08:24:40;;;;;;;3.80;1.00;;;7.10;99.90;;;7.10;100.00;101340.50;4987827;28;20233;-76
2023/01/04 08:27:07;;;;;;;7.20;1.48;;;7.10;99.90;;;7.21;100.00;101335.63;4975761;28;20300;-78
2023/01/04 08:29:35;;;;;;;31.23;5.95;;;7.20;99.90;;;7.24;100.00;101328.75;4970787;28;20306;-77
2023/01/04 08:32:02;;;;;;;12.50;2.78;;;7.30;99.90;;;7.29;100.00;101328.91;4980655;28;20256;-76
2023/01/04 08:34:30;;;;;;;10.07;2.17;;;7.30;99.90;;;7.27;100.00;101317.44;4979200;28;20224;-77
2023/01/04 08:36:58;;;;;;;15.32;3.10;;;7.30;99.90;;;7.25;100.00;101320.00;4966415;28;20229;-77
2023/01/04 08:39:28;;;;;;;32.63;6.30;;;7.30;99.90;;;7.24;100.00;101307.69;4964043;28;20240;-77
2023/01/04 08:41:55;;;;;;;17.80;3.55;;;7.30;99.90;;;7.25;100.00;101304.22;4966780;28;20216;-78
2023/01/04 08:44:33;;;;;;;29.80;6.03;;;7.30;99.90;;;7.22;100.00;101312.00;4958834;28;20232;-78
2023/01/04 08:47:02;;;;;;;29.00;5.82;;;7.20;99.90;;;7.20;100.00;101316.31;4954665;28;20241;-76
2023/01/04 08:49:29;;;;;;;27.67;5.82;;;7.20;99.90;;;7.18;100.00;101304.84;4951013;28;20642;-76
2023/01/04 08:51:56;;;;;;;17.80;4.10;;;7.20;99.90;;;7.15;100.00;101307.38;4938099;28;20229;-80
2023/01/04 08:54:23;;;;;;;19.75;4.18;;;7.20;99.90;;;7.15;100.00;101304.75;4930824;28;20299;-77
2023/01/04 08:56:50;;;;;;;19.17;4.18;;;7.20;99.90;;;7.18;100.00;101310.09;4968343;28;20280;-77
2023/01/04 08:59:17;;;;;;;15.27;3.08;;;7.20;99.90;;;7.17;100.00;101303.06;4952024;28;20229;-76
2023/01/04 09:01:44;;;;;;;21.15;4.43;;;7.20;99.90;;;7.14;100.00;101304.69;4944872;28;20228;-75
2023/01/04 09:04:12;;;;;;;10.10;2.08;;;7.20;99.90;;;7.14;100.00;101299.41;4955817;28;20631;-76
2023/01/04 09:06:39;;;;;;;19.40;3.88;;;7.20;99.90;;;7.14;100.00;101299.41;4945159;28;20240;-78
2023/01/04 09:09:06;;;;;;;33.30;6.82;;;7.10;99.90;;;7.17;100.00;101300.44;4961627;28;20300;-78
2023/01/04 09:11:34;;;;;;;36.05;7.20;;;7.20;99.90;;;7.20;100.00;101305.78;4942667;28;20315;-76
2023/01/04 09:14:01;;;;;;;23.63;4.90;;;7.20;99.90;;;7.25;100.00;101308.59;4947415;28;20237;-76
2023/01/04 09:16:36;;;;;;;20.50;4.28;;;7.30;99.90;;;7.25;100.00;101309.50;4961964;28;20232;-77
2023/01/04 09:19:04;;;;;;;17.55;3.83;;;7.30;99.90;;;7.24;100.00;101307.69;4976577;28;20233;-77
2023/01/04 09:21:31;;;;;;;18.90;4.03;;;7.30;99.90;;;7.29;100.00;101315.75;4964513;28;20264;-77
2023/01/04 09:23:58;;;;;;;25.08;5.25;;;7.30;99.90;;;7.34;100.00;101307.19;4964689;28;20737;-77
2023/01/04 09:26:26;;;;;;;34.22;7.03;;;7.40;99.90;;;7.39;100.00;101315.25;4960149;28;20244;-76
2023/01/04 09:28:55;;;;;;;29.13;5.90;;;7.40;99.90;;;7.42;100.00;101298.69;4964064;28;20285;-76
2023/01/04 09:31:27;;;;;;;14.23;2.85;;;7.40;99.90;;;7.42;100.00;101309.19;4960315;28;20233;-76
2023/01/04 09:33:57;;;;;;;19.98;4.10;;;7.40;99.90;;;7.44;100.00;101294.34;4961258;28;20237;-78
2023/01/04 09:36:44;;;;;;;15.80;3.20;;;7.50;99.90;;;7.47;100.00;101300.63;4956166;28;20284;-77
2023/01/04 09:39:12;;;;;;;13.27;2.60;;;7.50;99.90;;;7.44;100.00;101297.88;4965355;28;20284;-80
2023/01/04 09:41:59;;;;;;;13.70;2.83;;;7.50;99.90;;;7.49;100.00;101300.69;4965298;28;20225;-76
2023/01/04 09:44:34;;;;;;;28.20;6.00;;;7.50;99.90;;;7.47;100.00;101286.56;4962080;28;20236;-82
2023/01/04 09:47:49;;;;;;;18.23;3.67;;;7.50;99.90;;;7.47;100.00;101278.69;4957544;28;20241;-78
2023/01/04 09:50:27;;;;;;;14.80;3.00;;;7.50;99.90;;;7.51;100.00;101283.22;4962289;28;20234;-79
2023/01/04 09:53:01;;;;;;;16.30;3.50;;;7.50;99.90;;;7.51;100.00;101283.22;4962691;28;20237;-79
2023/01/04 09:55:37;;;;;;;10.02;2.30;;;7.50;99.90;;;7.55;100.00;101308.78;4949038;28;20253;-77
2023/01/04 09:58:27;;;;;;;14.77;3.00;;;7.60;99.90;;;7.54;100.00;101280.69;4943399;28;20288;-77
2023/01/04 10:01:26;;;;;;;25.13;5.18;;;7.50;99.90;;;7.54;100.00;101297.38;4955249;28;20229;-78
2023/01/04 10:04:14;;;;;;;17.92;3.90;;;7.50;99.90;;;7.59;100.00;101301.06;4938183;28;20239;-77
2023/01/04 10:06:42;;;;;;;16.27;3.42;;;7.60;99.90;;;7.63;100.00;101297.69;4943233;28;20754;-77
2023/01/04 10:09:13;;;;;;;13.45;2.75;;;7.70;99.90;;;7.63;100.00;101308.22;4955219;28;20225;-79
2023/01/04 10:12:41;;;;;;;13.00;2.80;;;7.70;99.90;;;7.65;100.00;101308.28;4962252;28;20236;-79
2023/01/04 10:15:26;;;;;;;15.50;3.38;;;7.70;99.90;;;7.61;100.00;101299.38;4964387;28;20286;-78
2023/01/04 10:18:32;;;;;;;26.20;5.30;;;7.60;99.90;;;7.65;100.00;101292.47;4967486;28;20229;-77
2023/01/04 10:21:42;;;;;;;14.57;3.22;;;7.70;99.90;;;7.69;100.00;101276.84;4958181;28;20233;-79
2023/01/04 10:24:12;;;;;;;12.05;2.47;;;7.70;99.90;;;7.70;100.00;101277.72;4966094;28;20225;-78
2023/01/04 10:26:47;;;;;;;7.07;1.48;;;7.70;99.90;;;7.71;100.00;101275.16;4974275;28;20256;-78
2023/01/04 10:29:35;;;;;;;16.45;3.35;;;7.70;99.90;;;7.73;100.00;101280.47;4956599;28;20266;-77
2023/01/04 10:32:17;;;;;;;36.55;7.45;;;8.50;99.90;;;7.78;100.00;101278.00;4949645;28;20686;-78
2023/01/04 10:34:46;;;;;;;17.67;3.40;;;7.80;99.90;;;7.77;100.00;101277.09;4963451;28;20239;-77
2023/01/04 10:37:28;;;;;;;40.97;8.75;;;7.80;99.90;;;7.85;100.00;101274.75;4951657;28;20252;-77
2023/01/04 10:39:55;;;;;;;13.35;3.15;;;7.90;99.90;;;7.81;100.00;101257.94;4949766;28;20233;-77
2023/01/04 10:42:58;;;;;;;22.52;4.80;;;7.90;99.90;;;7.86;100.00;101258.09;4962660;28;20237;-77
2023/01/04 10:45:46;;;;;;;16.38;3.88;;;7.90;99.90;;;7.92;100.00;101267.09;4958463;28;20224;-78
2023/01/04 10:48:22;;;;;;;18.48;3.83;;;7.90;99.90;;;7.96;100.00;101266.34;4956846;28;20237;-79
2023/01/04 10:51:01;;;;;;;12.85;2.65;;;8.00;99.90;;;8.03;100.00;101263.06;4955469;28;20278;-78
2023/01/04 10:53:54;;;;;;;7.55;1.65;;;8.00;99.90;;;8.09;100.00;101262.38;4964342;28;20260;-76
2023/01/04 10:56:32;;;;;;;20.13;4.25;;;8.10;99.90;;;8.17;100.00;101245.06;4961957;28;20365;-78
2023/01/04 10:59:16;;;;;;;22.92;4.80;;;8.30;99.90;;;8.32;100.00;101244.66;4950239;28;20225;-77
2023/01/04 11:02:05;;;;;;;22.92;4.75;;;8.30;99.90;;;8.33;100.00;101228.03;4949145;28;20241;-76
2023/01/04 11:04:59;;;;;;;20.55;4.13;;;8.30;99.90;;;8.37;100.00;101219.38;4952044;28;20218;-75
2023/01/04 11:07:38;;;;;;;21.55;4.68;;;8.40;99.90;;;8.47;100.00;101233.72;4953698;28;20232;-77
2023/01/04 11:10:19;;;;;;;17.75;4.03;;;8.40;99.90;;;8.46;100.00;101230.19;4959053;28;20229;-76
2023/01/04 11:12:46;;;;;;;12.65;2.53;;;8.50;99.90;;;8.49;100.00;101234.66;4959977;28;20232;-85
2023/01/04 11:15:13;;;;;;;13.77;2.90;;;8.50;99.90;;;8.46;100.00;101238.09;4961219;28;20225;-77
2023/01/04 11:17:42;;;;;;;24.60;4.80;;;8.50;99.90;;;8.58;100.00;101235.84;4961391;28;20693;-76
2023/01/04 11:20:10;;;;;;;27.88;5.65;;;8.60;99.90;;;8.64;100.00;101236.00;4965473;28;20233;-76
2023/01/04 11:22:51;;;;;;;12.35;2.58;;;8.70;99.90;;;8.78;100.00;101236.41;4958562;28;20291;-75